Haci Arif Kaptan — TCQQ — position and weather

sailwx.info

Track history (hours):
 
Tides and Currents Weather Stations Pressure Air Temp Water Temp Dewpoint Dewpoint Depression Visibility Wind Speed Wind Dir Waves Ship Positions

Haci Arif Kaptan

Last reported at 2014-Sep-02 17:31 UTC. Time now 2014-Sep-02 21:40 UTC.
Position N 40°30' E 026°59'.

Length 130 m; draft 4.5 m.

Type: Ship. MMSI: 271000494.

Date/timePositionNaut miles runAvg speedWind from/ knotsBaromVisibWave heightAir tempDewpointWater temp
2014-Sep-02 17:31N 40°30' E 026°59'11 8.6
2014-Sep-02 16:12N 40°26' E 026°45'6 7.9
2014-Sep-02 15:26N 40°21' E 026°39'46 6.4
2014-Sep-02 08:14N 39°47' E 025°59'0 0.0
2014-Sep-02 07:30N 39°47' E 025°59'0 0.0
2014-Sep-02 06:22N 39°46' E 025°59'25 2.5
2014-Sep-01 20:26N 39°24' E 025°45'17 9.3
2014-Sep-01 18:33N 39°07' E 025°45'9 9.2
2014-Sep-01 17:33N 38°57' E 025°45'9 8.6
2014-Sep-01 16:33N 38°49' E 025°45'8 8.4
2014-Sep-01 15:33N 38°40' E 025°45'9 8.8
2014-Sep-01 14:33N 38°32' E 025°45'8 8.5
2014-Sep-01 13:33N 38°23' E 025°45'8 8.2
2014-Sep-01 12:33N 38°15' E 025°47'9 8.6
2014-Sep-01 11:29N 38°08' E 025°54'8 8.7
2014-Sep-01 10:33N 38°03' E 026°02'35 8.6
2014-Sep-01 06:30N 37°39' E 026°34'17 8.6
2014-Sep-01 04:33N 37°29' E 026°50'285 7.4
2014-Aug-30 14:17N 34°41' E 031°36'20 8.9
2014-Aug-30 12:05N 34°31' E 031°56'5 8.7
2014-Aug-30 11:33N 34°29' E 032°01'12 9.0
2014-Aug-30 10:12N 34°22' E 032°13'6 9.3
2014-Aug-30 09:33N 34°18' E 032°19'10 9.1
2014-Aug-30 08:26N 34°12' E 032°29'8 9.0
2014-Aug-30 07:32N 34°08' E 032°37'9 9.3
2014-Aug-30 06:32N 34°03' E 032°47'12 9.7
2014-Aug-30 05:17N 33°56' E 032°59'2810.1
2014-Aug-30 02:28N 33°40' E 033°27'1110.2
2014-Aug-30 01:26N 33°34' E 033°37'910.0
2014-Aug-30 00:31N 33°29' E 033°46'10 9.8
2014-Aug-29 23:32N 33°24' E 033°56'10 9.7
2014-Aug-29 22:27N 33°18' E 034°06'18 9.3
2014-Aug-29 20:29N 33°08' E 034°25'9 9.2
2014-Aug-29 19:33N 33°03' E 034°33'9 9.3
2014-Aug-29 18:33N 32°58' E 034°42'9 9.2
2014-Aug-29 17:33N 32°54' E 034°52'9 3.0
2014-Aug-29 14:29N 32°49' E 035°02'0 0.0
2014-Aug-27 20:27N 32°49' E 035°02'0 0.0
2014-Aug-27 19:30N 32°49' E 035°02'0 0.0
2014-Aug-27 18:21N 32°49' E 035°02'0 0.0
2014-Aug-27 17:24N 32°49' E 035°02'0 0.0
2014-Aug-27 16:33N 32°49' E 035°02'0 0.0
2014-Aug-27 14:27N 32°49' E 035°02'0 0.0
2014-Aug-27 09:24N 32°49' E 035°02'0 0.0
2014-Aug-26 23:12N 32°49' E 035°02'0 0.0
2014-Aug-26 22:15N 32°49' E 035°02'0 0.0
2014-Aug-26 21:33N 32°49' E 035°02'0 0.0
2014-Aug-26 20:32N 32°49' E 035°02'0 0.0
2014-Aug-26 18:26N 32°49' E 035°02'0 0.0
2014-Aug-26 17:29N 32°49' E 035°02'0 0.0
2014-Aug-26 16:29N 32°49' E 035°02'0 0.0
2014-Aug-26 15:32N 32°49' E 035°02'0 0.0
2014-Aug-26 14:26N 32°49' E 035°02'0 0.0
2014-Aug-26 03:11N 32°49' E 035°02'0 0.0
2014-Aug-26 02:33N 32°49' E 035°02'4 2.4
2014-Aug-26 01:04N 32°52' E 035°00'0 0.0
2014-Aug-26 00:31N 32°52' E 035°00'0 0.0
2014-Aug-25 22:26N 32°52' E 035°00'1 0.7
2014-Aug-25 21:33N 32°52' E 034°60'7 7.2
2014-Aug-25 20:34N 32°54' E 034°52'8 8.2
2014-Aug-25 19:34N 32°56' E 034°42'8 8.3
2014-Aug-25 18:34N 32°58' E 034°32'8 8.4
2014-Aug-25 17:33N 33°01' E 034°23'8 8.3
2014-Aug-25 16:34N 33°01' E 034°13'9 8.6
2014-Aug-25 15:33N 33°01' E 034°03'9 9.2
2014-Aug-25 14:33N 33°04' E 033°52'9 9.4
2014-Aug-25 13:34N 33°08' E 033°42'9 8.7
2014-Aug-25 12:33N 33°12' E 033°33'8 8.5
2014-Aug-25 11:34N 33°16' E 033°24'9 8.5
2014-Aug-25 10:33N 33°20' E 033°15'8 8.5
2014-Aug-25 09:33N 33°24' E 033°06'8 8.5
2014-Aug-25 08:34N 33°28' E 032°57'8 8.3
2014-Aug-25 07:34N 33°32' E 032°49'8 8.3
2014-Aug-25 06:34N 33°36' E 032°40'8 8.4
2014-Aug-25 05:34N 33°40' E 032°31'9 8.6
2014-Aug-25 04:33N 33°44' E 032°21'8 8.4
2014-Aug-25 03:34N 33°48' E 032°13'8 8.3
2014-Aug-25 02:34N 33°51' E 032°04'8 8.2
2014-Aug-25 01:34N 33°55' E 031°55'8 8.1
2014-Aug-25 00:33N 33°59' E 031°46'8 8.3
2014-Aug-24 23:34N 34°03' E 031°38'10 8.4
2014-Aug-24 22:23N 34°08' E 031°27'7 8.2
2014-Aug-24 21:34N 34°11' E 031°20'8 8.3
2014-Aug-24 20:34N 34°14' E 031°11'8 8.2
2014-Aug-24 19:34N 34°18' E 031°02'8 8.5
2014-Aug-24 18:34N 34°22' E 030°53'9 8.6
2014-Aug-24 17:33N 34°27' E 030°44'123 8.1
2014-Aug-24 02:21N 35°26' E 028°32'17 7.6
2014-Aug-24 00:10N 35°33' E 028°14'14 8.0
2014-Aug-23 22:25N 35°39' E 027°59'7 7.6
2014-Aug-23 21:33N 35°41' E 027°51'8 8.1
2014-Aug-23 20:31N 35°45' E 027°42'10 8.3
2014-Aug-23 19:18N 35°50' E 027°31'  
Track history (hours):
 
Tides and Currents Weather Stations Pressure Air Temp Water Temp Dewpoint Dewpoint Depression Visibility Wind Speed Wind Dir Waves Ship Positions

Haci Arif Kaptan

Last reported at 2014-Sep-02 17:31 UTC. Time now 2014-Sep-02 21:40 UTC.
Position N 40°30' E 026°59'.

Length 130 m; draft 4.5 m.

Type: Ship. MMSI: 271000494.

Date/timePositionNaut miles runAvg speedWind from/ knotsBaromVisibWave heightAir tempDewpointWater temp
2014-Sep-02 17:31N 40°30' E 026°59'11 8.6
2014-Sep-02 16:12N 40°26' E 026°45'6 7.9
2014-Sep-02 15:26N 40°21' E 026°39'46 6.4
2014-Sep-02 08:14N 39°47' E 025°59'0 0.0
2014-Sep-02 07:30N 39°47' E 025°59'0 0.0
2014-Sep-02 06:22N 39°46' E 025°59'25 2.5
2014-Sep-01 20:26N 39°24' E 025°45'17 9.3
2014-Sep-01 18:33N 39°07' E 025°45'9 9.2
2014-Sep-01 17:33N 38°57' E 025°45'9 8.6
2014-Sep-01 16:33N 38°49' E 025°45'8 8.4
2014-Sep-01 15:33N 38°40' E 025°45'9 8.8
2014-Sep-01 14:33N 38°32' E 025°45'8 8.5
2014-Sep-01 13:33N 38°23' E 025°45'8 8.2
2014-Sep-01 12:33N 38°15' E 025°47'9 8.6
2014-Sep-01 11:29N 38°08' E 025°54'8 8.7
2014-Sep-01 10:33N 38°03' E 026°02'35 8.6
2014-Sep-01 06:30N 37°39' E 026°34'17 8.6
2014-Sep-01 04:33N 37°29' E 026°50'285 7.4
2014-Aug-30 14:17N 34°41' E 031°36'20 8.9
2014-Aug-30 12:05N 34°31' E 031°56'5 8.7
2014-Aug-30 11:33N 34°29' E 032°01'12 9.0
2014-Aug-30 10:12N 34°22' E 032°13'6 9.3
2014-Aug-30 09:33N 34°18' E 032°19'10 9.1
2014-Aug-30 08:26N 34°12' E 032°29'8 9.0
2014-Aug-30 07:32N 34°08' E 032°37'9 9.3
2014-Aug-30 06:32N 34°03' E 032°47'12 9.7
2014-Aug-30 05:17N 33°56' E 032°59'2810.1
2014-Aug-30 02:28N 33°40' E 033°27'1110.2
2014-Aug-30 01:26N 33°34' E 033°37'910.0
2014-Aug-30 00:31N 33°29' E 033°46'10 9.8
2014-Aug-29 23:32N 33°24' E 033°56'10 9.7
2014-Aug-29 22:27N 33°18' E 034°06'18 9.3
2014-Aug-29 20:29N 33°08' E 034°25'9 9.2
2014-Aug-29 19:33N 33°03' E 034°33'9 9.3
2014-Aug-29 18:33N 32°58' E 034°42'9 9.2
2014-Aug-29 17:33N 32°54' E 034°52'9 3.0
2014-Aug-29 14:29N 32°49' E 035°02'0 0.0
2014-Aug-27 20:27N 32°49' E 035°02'0 0.0
2014-Aug-27 19:30N 32°49' E 035°02'0 0.0
2014-Aug-27 18:21N 32°49' E 035°02'0 0.0
2014-Aug-27 17:24N 32°49' E 035°02'0 0.0
2014-Aug-27 16:33N 32°49' E 035°02'0 0.0
2014-Aug-27 14:27N 32°49' E 035°02'0 0.0
2014-Aug-27 09:24N 32°49' E 035°02'0 0.0
2014-Aug-26 23:12N 32°49' E 035°02'0 0.0
2014-Aug-26 22:15N 32°49' E 035°02'0 0.0
2014-Aug-26 21:33N 32°49' E 035°02'0 0.0
2014-Aug-26 20:32N 32°49' E 035°02'0 0.0
2014-Aug-26 18:26N 32°49' E 035°02'0 0.0
2014-Aug-26 17:29N 32°49' E 035°02'0 0.0
2014-Aug-26 16:29N 32°49' E 035°02'0 0.0
2014-Aug-26 15:32N 32°49' E 035°02'0 0.0
2014-Aug-26 14:26N 32°49' E 035°02'0 0.0
2014-Aug-26 03:11N 32°49' E 035°02'0 0.0
2014-Aug-26 02:33N 32°49' E 035°02'4 2.4
2014-Aug-26 01:04N 32°52' E 035°00'0 0.0
2014-Aug-26 00:31N 32°52' E 035°00'0 0.0
2014-Aug-25 22:26N 32°52' E 035°00'1 0.7
2014-Aug-25 21:33N 32°52' E 034°60'7 7.2
2014-Aug-25 20:34N 32°54' E 034°52'8 8.2
2014-Aug-25 19:34N 32°56' E 034°42'8 8.3
2014-Aug-25 18:34N 32°58' E 034°32'8 8.4
2014-Aug-25 17:33N 33°01' E 034°23'8 8.3
2014-Aug-25 16:34N 33°01' E 034°13'9 8.6
2014-Aug-25 15:33N 33°01' E 034°03'9 9.2
2014-Aug-25 14:33N 33°04' E 033°52'9 9.4
2014-Aug-25 13:34N 33°08' E 033°42'9 8.7
2014-Aug-25 12:33N 33°12' E 033°33'8 8.5
2014-Aug-25 11:34N 33°16' E 033°24'9 8.5
2014-Aug-25 10:33N 33°20' E 033°15'8 8.5
2014-Aug-25 09:33N 33°24' E 033°06'8 8.5
2014-Aug-25 08:34N 33°28' E 032°57'8 8.3
2014-Aug-25 07:34N 33°32' E 032°49'8 8.3
2014-Aug-25 06:34N 33°36' E 032°40'8 8.4
2014-Aug-25 05:34N 33°40' E 032°31'9 8.6
2014-Aug-25 04:33N 33°44' E 032°21'8 8.4
2014-Aug-25 03:34N 33°48' E 032°13'8 8.3
2014-Aug-25 02:34N 33°51' E 032°04'8 8.2
2014-Aug-25 01:34N 33°55' E 031°55'8 8.1
2014-Aug-25 00:33N 33°59' E 031°46'8 8.3
2014-Aug-24 23:34N 34°03' E 031°38'10 8.4
2014-Aug-24 22:23N 34°08' E 031°27'7 8.2
2014-Aug-24 21:34N 34°11' E 031°20'8 8.3
2014-Aug-24 20:34N 34°14' E 031°11'8 8.2
2014-Aug-24 19:34N 34°18' E 031°02'8 8.5
2014-Aug-24 18:34N 34°22' E 030°53'9 8.6
2014-Aug-24 17:33N 34°27' E 030°44'123 8.1
2014-Aug-24 02:21N 35°26' E 028°32'17 7.6
2014-Aug-24 00:10N 35°33' E 028°14'14 8.0
2014-Aug-23 22:25N 35°39' E 027°59'7 7.6
2014-Aug-23 21:33N 35°41' E 027°51'8 8.1
2014-Aug-23 20:31N 35°45' E 027°42'10 8.3
2014-Aug-23 19:18N 35°50' E 027°31'  

Dump ship's entire track history